Time;durP1;ratioP1;P1;durP2;ratioP2;P2;SDS_P1;SDS_P2;PMS_P1;PMS_P2;Temp;Humidity;BMP_temperature;BMP_pressure;BME280_temperature;BME280_humidity;BME280_pressure;Samples;Min_cycle;Max_cycle;Signal;HPM_P1;HPM_P2
2022/05/17 00:00:27;;;;;;;7.05;3.78;;;;;;;;;;5082261;28;20070;-70
2022/05/17 00:02:53;;;;;;;8.32;3.67;;;;;;;;;;5081993;28;20043;-70
2022/05/17 00:05:20;;;;;;;7.40;3.42;;;;;;;;;;5034718;28;20051;-70
2022/05/17 00:07:46;;;;;;;5.93;3.30;;;;;;;;;;5049205;28;20048;-70
2022/05/17 00:10:12;;;;;;;7.53;3.30;;;;;;;;;;5062443;28;20048;-70
2022/05/17 00:12:38;;;;;;;9.40;3.38;;;;;;;;;;5059924;28;20045;-70
2022/05/17 00:15:05;;;;;;;7.10;3.28;;;;;;;;;;5061648;28;20416;-70
2022/05/17 00:17:31;;;;;;;7.22;3.47;;;;;;;;;;5063075;28;20090;-70
2022/05/17 00:19:57;;;;;;;7.28;3.33;;;;;;;;;;5061432;28;20105;-70
2022/05/17 00:22:23;;;;;;;7.85;3.28;;;;;;;;;;5062428;28;20037;-71
2022/05/17 00:24:49;;;;;;;6.95;3.22;;;;;;;;;;5061900;28;20097;-70
2022/05/17 00:27:15;;;;;;;6.32;3.05;;;;;;;;;;5061833;28;20072;-70
2022/05/17 00:29:41;;;;;;;7.50;3.53;;;;;;;;;;5063015;28;20098;-70
2022/05/17 00:32:07;;;;;;;7.40;3.83;;;;;;;;;;5061605;28;20048;-70
2022/05/17 00:34:34;;;;;;;6.35;3.10;;;;;;;;;;5044294;28;20052;-70
2022/05/17 00:37:01;;;;;;;7.28;3.30;;;;;;;;;;5074695;28;20616;-70
2022/05/17 00:39:27;;;;;;;6.70;3.38;;;;;;;;;;5065210;28;20041;-70
2022/05/17 00:41:53;;;;;;;6.97;3.40;;;;;;;;;;5062191;28;20102;-70
2022/05/17 00:47:03;;;;;;;7.22;3.40;;;;;;;;;;5081915;28;20036;-70
2022/05/17 00:49:34;;;;;;;7.18;3.50;;;;;;;;;;5056677;28;20882;-70
2022/05/17 00:52:04;;;;;;;8.20;3.67;;;;;;;;;;5040735;28;20037;-70
2022/05/17 00:54:30;;;;;;;6.65;3.10;;;;;;;;;;5042040;28;20119;-70
2022/05/17 00:57:00;;;;;;;7.70;3.25;;;;;;;;;;5042565;28;20037;-70
2022/05/17 00:59:26;;;;;;;6.25;2.67;;;;;;;;;;5041007;28;20231;-70
2022/05/17 01:01:52;;;;;;;7.20;3.17;;;;;;;;;;5041415;28;20033;-70
2022/05/17 01:04:22;;;;;;;7.97;3.25;;;;;;;;;;5024290;28;20128;-70
2022/05/17 01:06:59;;;;;;;6.85;2.90;;;;;;;;;;5041421;28;20110;-70
2022/05/17 01:09:25;;;;;;;6.53;2.85;;;;;;;;;;5041570;28;20359;-69
2022/05/17 01:11:51;;;;;;;6.55;3.20;;;;;;;;;;5041394;28;20136;-70
2022/05/17 01:17:02;;;;;;;7.28;3.25;;;;;;;;;;5041244;28;20478;-70
2022/05/17 01:19:28;;;;;;;7.18;2.97;;;;;;;;;;5041093;28;20056;-70
2022/05/17 01:21:54;;;;;;;7.70;3.30;;;;;;;;;;5045066;28;20051;-70
2022/05/17 01:24:20;;;;;;;6.57;2.75;;;;;;;;;;5067004;28;20044;-69
2022/05/17 01:26:49;;;;;;;7.60;3.50;;;;;;;;;;5044430;28;20501;-69
2022/05/17 01:29:16;;;;;;;7.97;3.15;;;;;;;;;;5062792;28;20047;-69
2022/05/17 01:31:42;;;;;;;6.85;3.13;;;;;;;;;;5048334;28;21086;-69
2022/05/17 01:34:10;;;;;;;6.53;2.72;;;;;;;;;;5059227;28;20532;-69
2022/05/17 01:36:37;;;;;;;7.20;2.60;;;;;;;;;;5064543;28;20059;-69
2022/05/17 01:39:04;;;;;;;7.72;3.10;;;;;;;;;;5063959;28;20049;-69
2022/05/17 01:41:30;;;;;;;6.55;2.50;;;;;;;;;;5064364;28;20044;-69
2022/05/17 01:43:56;;;;;;;5.97;2.53;;;;;;;;;;5064190;28;20037;-69
2022/05/17 01:46:22;;;;;;;7.07;2.92;;;;;;;;;;5064327;28;20033;-69
2022/05/17 01:48:49;;;;;;;5.95;2.58;;;;;;;;;;5064026;28;20060;-69
2022/05/17 01:51:15;;;;;;;6.45;2.83;;;;;;;;;;5047181;28;20083;-69
2022/05/17 01:53:42;;;;;;;7.03;2.50;;;;;;;;;;5064625;28;20067;-69
2022/05/17 01:56:09;;;;;;;7.30;2.70;;;;;;;;;;5064038;28;20048;-69
2022/05/17 01:58:35;;;;;;;7.57;3.10;;;;;;;;;;5040079;28;20044;-70
2022/05/17 02:01:02;;;;;;;5.85;2.40;;;;;;;;;;5029558;28;20041;-69
2022/05/17 02:03:28;;;;;;;5.60;2.55;;;;;;;;;;5061049;28;20048;-69
2022/05/17 02:05:54;;;;;;;6.68;2.80;;;;;;;;;;5064112;28;20047;-69
2022/05/17 02:08:20;;;;;;;7.38;2.92;;;;;;;;;;5062291;28;20102;-69
2022/05/17 02:10:45;;;;;;;6.22;2.67;;;;;;;;;;5049647;28;20044;-70
2022/05/17 02:13:11;;;;;;;7.35;2.50;;;;;;;;;;5056484;28;20134;-69
2022/05/17 02:15:38;;;;;;;8.23;2.47;;;;;;;;;;5064011;28;20132;-69
2022/05/17 02:18:04;;;;;;;6.20;2.75;;;;;;;;;;5063676;28;20482;-69
2022/05/17 02:20:30;;;;;;;6.72;2.90;;;;;;;;;;5063397;28;20036;-69
2022/05/17 02:22:56;;;;;;;6.85;2.83;;;;;;;;;;5063692;28;20592;-69
2022/05/17 02:25:22;;;;;;;6.85;2.55;;;;;;;;;;5063738;28;20643;-70
2022/05/17 02:27:49;;;;;;;6.88;2.67;;;;;;;;;;5062736;28;20041;-69
2022/05/17 02:30:15;;;;;;;4.50;2.40;;;;;;;;;;5070121;28;20040;-69
2022/05/17 02:32:41;;;;;;;6.60;2.75;;;;;;;;;;5083506;28;20044;-69
2022/05/17 02:35:08;;;;;;;6.55;2.70;;;;;;;;;;5048164;28;20125;-69
2022/05/17 02:37:34;;;;;;;6.40;2.83;;;;;;;;;;5063375;28;20048;-69
2022/05/17 02:40:00;;;;;;;6.93;2.90;;;;;;;;;;5062269;28;20037;-69
2022/05/17 02:42:26;;;;;;;8.02;2.55;;;;;;;;;;5047225;28;20570;-69
2022/05/17 02:44:52;;;;;;;7.88;2.60;;;;;;;;;;5062602;28;20068;-69
2022/05/17 02:47:18;;;;;;;7.25;2.50;;;;;;;;;;5050556;28;20047;-69
2022/05/17 02:49:45;;;;;;;7.00;2.50;;;;;;;;;;5062986;28;20048;-69
2022/05/17 02:52:12;;;;;;;7.30;3.20;;;;;;;;;;5062948;28;20053;-69
2022/05/17 02:54:39;;;;;;;5.97;2.40;;;;;;;;;;5064296;28;20590;-69
2022/05/17 02:57:05;;;;;;;6.00;2.28;;;;;;;;;;5062929;28;20040;-69
2022/05/17 02:59:31;;;;;;;5.85;2.42;;;;;;;;;;5062540;28;20056;-69
2022/05/17 03:01:59;;;;;;;6.53;2.53;;;;;;;;;;5063125;28;20053;-69
2022/05/17 03:04:26;;;;;;;5.38;2.38;;;;;;;;;;5061414;28;20048;-69
2022/05/17 03:06:52;;;;;;;6.20;2.53;;;;;;;;;;5044227;28;20605;-69
2022/05/17 03:09:18;;;;;;;5.15;2.40;;;;;;;;;;5061874;28;20052;-69
2022/05/17 03:11:44;;;;;;;5.88;2.55;;;;;;;;;;5046199;28;20040;-69
2022/05/17 03:14:11;;;;;;;8.00;2.70;;;;;;;;;;5042480;28;20124;-69
2022/05/17 03:16:37;;;;;;;7.10;2.25;;;;;;;;;;5026038;28;20524;-69
2022/05/17 03:19:04;;;;;;;5.78;2.40;;;;;;;;;;5045983;28;20086;-69
2022/05/17 03:21:30;;;;;;;7.80;2.30;;;;;;;;;;5062600;28;20120;-69
2022/05/17 03:23:56;;;;;;;5.85;2.50;;;;;;;;;;5062376;28;20115;-69
2022/05/17 03:26:22;;;;;;;6.75;2.53;;;;;;;;;;5062803;28;20041;-69
2022/05/17 03:28:48;;;;;;;6.85;2.40;;;;;;;;;;5062030;28;20622;-69
2022/05/17 03:31:14;;;;;;;7.05;2.47;;;;;;;;;;5062100;28;20040;-69
2022/05/17 03:33:40;;;;;;;7.15;2.60;;;;;;;;;;5062046;28;20056;-69
2022/05/17 03:36:07;;;;;;;5.45;2.20;;;;;;;;;;5062254;28;20083;-69
2022/05/17 03:38:33;;;;;;;5.97;2.47;;;;;;;;;;5062259;28;20056;-69
2022/05/17 03:40:59;;;;;;;6.90;2.42;;;;;;;;;;5062576;28;20045;-69
2022/05/17 03:43:27;;;;;;;6.22;2.38;;;;;;;;;;5051339;28;20978;-69
2022/05/17 03:45:53;;;;;;;5.55;2.08;;;;;;;;;;5046062;28;20681;-69
2022/05/17 03:48:19;;;;;;;5.90;2.65;;;;;;;;;;5061713;28;20484;-69
2022/05/17 03:50:46;;;;;;;6.38;2.42;;;;;;;;;;5061779;28;20044;-69
2022/05/17 03:53:12;;;;;;;6.45;2.30;;;;;;;;;;5053466;28;20056;-69
2022/05/17 03:55:38;;;;;;;6.43;2.20;;;;;;;;;;5042430;28;20051;-69
2022/05/17 03:58:04;;;;;;;7.25;2.42;;;;;;;;;;5057391;28;20851;-69
2022/05/17 04:00:30;;;;;;;5.47;2.13;;;;;;;;;;5061659;28;20037;-69
2022/05/17 04:02:56;;;;;;;4.75;2.05;;;;;;;;;;5044910;28;20040;-69
2022/05/17 04:05:22;;;;;;;5.75;2.22;;;;;;;;;;5061009;28;20036;-69
2022/05/17 04:07:48;;;;;;;5.32;1.95;;;;;;;;;;5061674;28;20040;-69
2022/05/17 04:10:15;;;;;;;7.35;2.50;;;;;;;;;;5061898;28;20538;-69
2022/05/17 04:12:41;;;;;;;6.55;2.50;;;;;;;;;;5061791;28;20685;-69
2022/05/17 04:15:10;;;;;;;5.95;2.50;;;;;;;;;;5061579;28;20049;-70
2022/05/17 04:17:36;;;;;;;6.32;2.60;;;;;;;;;;5061678;28;20090;-70
2022/05/17 04:20:03;;;;;;;6.15;2.28;;;;;;;;;;5061479;28;20650;-70
2022/05/17 04:22:29;;;;;;;6.10;2.47;;;;;;;;;;5061717;28;20041;-70
2022/05/17 04:24:56;;;;;;;6.22;2.47;;;;;;;;;;5061868;28;20621;-70
2022/05/17 04:27:22;;;;;;;6.22;2.08;;;;;;;;;;5042301;28;20131;-70
2022/05/17 04:29:48;;;;;;;5.13;1.95;;;;;;;;;;5042933;28;20140;-70
2022/05/17 04:32:14;;;;;;;8.73;2.95;;;;;;;;;;5041614;28;20498;-70
2022/05/17 04:34:40;;;;;;;5.32;2.10;;;;;;;;;;5052172;28;20115;-70
2022/05/17 04:37:06;;;;;;;6.15;2.08;;;;;;;;;;5048129;28;20048;-70
2022/05/17 04:39:32;;;;;;;6.10;2.28;;;;;;;;;;5061593;28;20056;-70
2022/05/17 04:41:58;;;;;;;7.55;2.15;;;;;;;;;;5052420;28;20591;-70
2022/05/17 04:44:26;;;;;;;6.82;2.10;;;;;;;;;;5071183;28;20047;-70
2022/05/17 04:46:52;;;;;;;5.15;2.03;;;;;;;;;;5061273;28;20094;-70
2022/05/17 04:49:18;;;;;;;6.57;2.40;;;;;;;;;;5061485;28;20121;-70
2022/05/17 04:51:44;;;;;;;6.32;2.33;;;;;;;;;;5061558;28;20056;-70
2022/05/17 04:54:11;;;;;;;6.78;2.17;;;;;;;;;;5060888;28;20080;-70
2022/05/17 04:56:37;;;;;;;6.35;2.65;;;;;;;;;;5044986;28;20044;-70
2022/05/17 04:59:03;;;;;;;5.78;2.10;;;;;;;;;;5061103;28;20044;-70
2022/05/17 05:01:31;;;;;;;6.00;2.00;;;;;;;;;;5054553;28;20041;-70
2022/05/17 05:03:57;;;;;;;5.57;1.98;;;;;;;;;;5049989;28;20242;-70
2022/05/17 05:06:23;;;;;;;6.53;2.20;;;;;;;;;;5070214;28;20532;-70
2022/05/17 05:08:49;;;;;;;6.68;2.47;;;;;;;;;;5064967;28;20048;-71
2022/05/17 05:11:15;;;;;;;6.72;2.28;;;;;;;;;;5056634;28;20045;-70
2022/05/17 05:13:41;;;;;;;6.05;2.10;;;;;;;;;;5035443;28;20047;-70
2022/05/17 05:16:11;;;;;;;5.75;2.40;;;;;;;;;;5059387;28;20121;-70
2022/05/17 05:18:38;;;;;;;5.15;2.10;;;;;;;;;;5068579;28;20127;-70
2022/05/17 05:21:12;;;;;;;5.00;2.20;;;;;;;;;;5061363;28;20032;-70
2022/05/17 05:23:38;;;;;;;7.60;2.22;;;;;;;;;;5064611;28;20123;-70
2022/05/17 05:26:04;;;;;;;6.50;2.03;;;;;;;;;;5064645;28;20074;-70
2022/05/17 05:28:30;;;;;;;8.63;2.17;;;;;;;;;;5047785;28;20044;-70
2022/05/17 05:30:57;;;;;;;6.45;2.47;;;;;;;;;;5064564;28;20048;-70
2022/05/17 05:33:23;;;;;;;9.27;2.50;;;;;;;;;;5061338;28;20153;-70
2022/05/17 05:35:49;;;;;;;5.82;2.20;;;;;;;;;;5050115;28;20052;-70
2022/05/17 05:38:16;;;;;;;6.82;1.98;;;;;;;;;;5062350;28;20055;-70
2022/05/17 05:40:42;;;;;;;6.32;2.00;;;;;;;;;;5064614;28;20048;-70
2022/05/17 05:43:08;;;;;;;7.85;2.05;;;;;;;;;;5062478;28;20106;-70
2022/05/17 05:45:34;;;;;;;8.85;2.53;;;;;;;;;;5049810;28;20044;-70
2022/05/17 05:48:01;;;;;;;5.78;2.00;;;;;;;;;;5059984;28;20055;-70
2022/05/17 05:50:28;;;;;;;6.43;2.10;;;;;;;;;;5054585;28;20057;-70
2022/05/17 05:53:02;;;;;;;6.57;2.70;;;;;;;;;;5065449;28;20028;-70
2022/05/17 05:55:28;;;;;;;7.60;2.38;;;;;;;;;;5064515;28;20040;-70
2022/05/17 05:57:54;;;;;;;6.40;2.08;;;;;;;;;;5065364;28;20067;-70
2022/05/17 06:00:21;;;;;;;5.55;2.10;;;;;;;;;;5063285;28;20392;-70
2022/05/17 06:02:47;;;;;;;6.95;2.40;;;;;;;;;;5063630;28;20082;-70
2022/05/17 06:05:14;;;;;;;5.32;2.00;;;;;;;;;;5059416;28;20045;-70
2022/05/17 06:07:40;;;;;;;6.75;1.95;;;;;;;;;;5048068;28;20041;-71
2022/05/17 06:10:06;;;;;;;7.32;2.28;;;;;;;;;;5028400;28;20075;-73
2022/05/17 06:12:32;;;;;;;6.32;2.28;;;;;;;;;;5043743;28;20555;-70
2022/05/17 06:14:58;;;;;;;7.47;2.75;;;;;;;;;;5043235;28;20123;-71
2022/05/17 06:17:27;;;;;;;8.55;2.92;;;;;;;;;;5043715;28;20041;-70
2022/05/17 06:19:55;;;;;;;9.10;2.70;;;;;;;;;;5043754;28;20049;-71
2022/05/17 06:22:21;;;;;;;10.75;2.58;;;;;;;;;;5043700;28;20048;-71
2022/05/17 06:24:47;;;;;;;7.90;2.15;;;;;;;;;;5043677;28;20256;-70
2022/05/17 06:27:13;;;;;;;6.38;2.30;;;;;;;;;;5043841;28;20116;-71
2022/05/17 06:29:39;;;;;;;7.10;2.38;;;;;;;;;;5043185;28;20508;-70
2022/05/17 06:32:08;;;;;;;8.48;2.35;;;;;;;;;;5043633;28;20669;-71
2022/05/17 06:34:34;;;;;;;6.88;2.30;;;;;;;;;;5041834;28;20052;-71
2022/05/17 06:37:00;;;;;;;11.88;2.60;;;;;;;;;;5043190;28;20363;-70
2022/05/17 06:39:27;;;;;;;4.93;2.10;;;;;;;;;;5043494;28;20049;-70
2022/05/17 06:41:55;;;;;;;10.35;2.80;;;;;;;;;;5042785;28;20047;-70
2022/05/17 06:44:21;;;;;;;9.27;2.40;;;;;;;;;;5026314;28;20040;-70
2022/05/17 06:46:47;;;;;;;8.43;2.45;;;;;;;;;;5043264;28;20068;-71
2022/05/17 06:49:13;;;;;;;8.30;2.05;;;;;;;;;;5026412;28;20119;-70
2022/05/17 06:51:41;;;;;;;9.65;2.28;;;;;;;;;;5043355;28;20122;-71
2022/05/17 06:54:07;;;;;;;6.72;1.83;;;;;;;;;;5043230;28;20052;-70
2022/05/17 06:56:36;;;;;;;7.95;2.40;;;;;;;;;;5042624;28;20052;-71
2022/05/17 06:59:02;;;;;;;8.85;1.90;;;;;;;;;;5060565;28;20148;-70
2022/05/17 07:01:28;;;;;;;9.48;2.67;;;;;;;;;;5042445;28;20120;-70
2022/05/17 07:03:55;;;;;;;7.82;2.00;;;;;;;;;;5026209;28;20206;-70
2022/05/17 07:06:21;;;;;;;8.10;1.95;;;;;;;;;;5043061;28;20051;-70
2022/05/17 07:08:47;;;;;;;9.10;2.30;;;;;;;;;;5042720;28;20052;-70
2022/05/17 07:13:58;;;;;;;9.25;2.08;;;;;;;;;;5042838;28;20546;-68
2022/05/17 07:16:24;;;;;;;6.60;1.95;;;;;;;;;;5042573;28;20136;-68
2022/05/17 07:18:50;;;;;;;6.60;1.90;;;;;;;;;;5042428;28;20052;-68
2022/05/17 07:21:16;;;;;;;6.03;1.77;;;;;;;;;;5042356;28;20172;-68
2022/05/17 07:23:43;;;;;;;7.30;1.98;;;;;;;;;;5042512;28;20653;-68
2022/05/17 07:26:09;;;;;;;8.88;1.90;;;;;;;;;;5042861;28;20053;-68
2022/05/17 07:28:40;;;;;;;8.10;2.20;;;;;;;;;;5041962;28;20041;-69
2022/05/17 07:31:06;;;;;;;7.28;2.20;;;;;;;;;;5042373;28;20037;-68
2022/05/17 07:33:32;;;;;;;6.28;2.38;;;;;;;;;;5025625;28;20154;-68
2022/05/17 07:35:58;;;;;;;7.07;2.20;;;;;;;;;;5042089;28;20052;-68
2022/05/17 07:38:24;;;;;;;6.75;1.90;;;;;;;;;;5043647;28;20041;-69
2022/05/17 07:40:51;;;;;;;5.60;1.70;;;;;;;;;;5044307;28;20036;-68
2022/05/17 07:43:17;;;;;;;7.93;1.77;;;;;;;;;;5067752;28;20048;-68
2022/05/17 07:45:44;;;;;;;5.68;1.90;;;;;;;;;;5045825;28;20570;-68
2022/05/17 07:48:11;;;;;;;7.28;2.00;;;;;;;;;;5061497;28;20052;-68
2022/05/17 07:50:37;;;;;;;5.10;1.95;;;;;;;;;;5045804;28;20046;-68
2022/05/17 07:53:07;;;;;;;8.07;2.00;;;;;;;;;;5061905;28;20044;-68
2022/05/17 07:55:35;;;;;;;8.13;1.88;;;;;;;;;;5061360;28;20041;-68
2022/05/17 07:58:01;;;;;;;6.35;1.83;;;;;;;;;;5061424;28;20054;-69
2022/05/17 08:00:27;;;;;;;5.72;1.70;;;;;;;;;;5061392;28;20731;-69
2022/05/17 08:02:56;;;;;;;4.63;1.75;;;;;;;;;;5061699;28;20048;-68
2022/05/17 08:05:22;;;;;;;9.48;1.80;;;;;;;;;;5081471;28;20107;-69
2022/05/17 08:07:48;;;;;;;7.88;2.38;;;;;;;;;;5082129;28;20135;-68
2022/05/17 08:10:14;;;;;;;6.78;2.38;;;;;;;;;;5082071;28;20069;-69
2022/05/17 08:12:40;;;;;;;9.82;2.42;;;;;;;;;;5062651;28;20562;-68
2022/05/17 08:15:07;;;;;;;11.20;2.65;;;;;;;;;;5049061;28;20096;-68
2022/05/17 08:17:33;;;;;;;12.32;3.50;;;;;;;;;;5061044;28;20040;-68
2022/05/17 08:19:59;;;;;;;15.63;3.45;;;;;;;;;;5059744;28;20052;-69
2022/05/17 08:22:25;;;;;;;9.63;3.35;;;;;;;;;;5059838;28;20048;-68
2022/05/17 08:27:39;;;;;;;11.90;3.65;;;;;;;;;;5058502;28;20076;-68
2022/05/17 08:30:13;;;;;;;10.50;3.70;;;;;;;;;;5043290;28;20044;-68
2022/05/17 08:33:15;;;;;;;12.02;3.88;;;;;;;;;;5043168;28;20131;-69
2022/05/17 08:35:52;;;;;;;11.63;3.70;;;;;;;;;;5042939;28;20485;-69
2022/05/17 08:38:18;;;;;;;13.07;4.10;;;;;;;;;;5062642;28;20138;-69
2022/05/17 08:40:56;;;;;;;14.23;3.78;;;;;;;;;;5063970;28;20088;-69
2022/05/17 10:00:08;;;;;;;11.35;2.58;;;;;;;;;;4993472;28;20077;-86
2022/05/17 10:02:49;;;;;;;10.07;2.10;;;;;;;;;;4972935;28;20045;-85
2022/05/17 10:05:52;;;;;;;10.18;2.58;;;;;;;;;;4970351;28;20121;-89
2022/05/17 10:08:31;;;;;;;10.20;2.15;;;;;;;;;;4995707;28;20030;-85
2022/05/17 10:11:05;;;;;;;9.38;2.47;;;;;;;;;;4966019;28;20038;-85
2022/05/17 10:13:51;;;;;;;5.75;1.80;;;;;;;;;;4967539;28;20038;-83
2022/05/17 10:16:55;;;;;;;9.20;2.20;;;;;;;;;;4978526;28;20038;-84
2022/05/17 10:19:31;;;;;;;10.32;2.05;;;;;;;;;;4888961;29;20639;-84
2022/05/17 10:22:09;;;;;;;15.77;3.45;;;;;;;;;;4877271;29;20044;-85
